sensor_id;sensor_type;location;lat;lon;timestamp;temperature;humidity
3023;DHT22;1521;53.584;9.938;2024-03-08T00:00:40;1.90;99.90
3023;DHT22;1521;53.584;9.938;2024-03-08T00:03:08;1.90;99.90
3023;DHT22;1521;53.584;9.938;2024-03-08T00:05:35;1.90;99.90
3023;DHT22;1521;53.584;9.938;2024-03-08T00:08:01;1.90;99.90
3023;DHT22;1521;53.584;9.938;2024-03-08T00:10:26;1.80;99.90
3023;DHT22;1521;53.584;9.938;2024-03-08T00:12:54;1.80;99.90
3023;DHT22;1521;53.584;9.938;2024-03-08T00:15:19;1.80;99.90
3023;DHT22;1521;53.584;9.938;2024-03-08T00:17:45;1.80;99.90
3023;DHT22;1521;53.584;9.938;2024-03-08T00:20:11;1.80;99.90
3023;DHT22;1521;53.584;9.938;2024-03-08T00:22:38;1.80;99.90
3023;DHT22;1521;53.584;9.938;2024-03-08T00:25:05;1.80;99.90
3023;DHT22;1521;53.584;9.938;2024-03-08T00:27:31;1.80;99.90
3023;DHT22;1521;53.584;9.938;2024-03-08T00:29:57;1.80;99.90
3023;DHT22;1521;53.584;9.938;2024-03-08T00:32:23;1.70;99.90
3023;DHT22;1521;53.584;9.938;2024-03-08T00:34:55;1.70;99.90
3023;DHT22;1521;53.584;9.938;2024-03-08T00:37:21;1.70;99.90
3023;DHT22;1521;53.584;9.938;2024-03-08T00:39:48;1.70;99.90
3023;DHT22;1521;53.584;9.938;2024-03-08T00:42:15;1.60;99.90
3023;DHT22;1521;53.584;9.938;2024-03-08T00:44:40;1.60;99.90
3023;DHT22;1521;53.584;9.938;2024-03-08T00:47:06;1.60;99.90
3023;DHT22;1521;53.584;9.938;2024-03-08T00:49:31;1.50;99.90
3023;DHT22;1521;53.584;9.938;2024-03-08T00:51:57;1.50;99.90
3023;DHT22;1521;53.584;9.938;2024-03-08T00:54:23;1.60;1.00
3023;DHT22;1521;53.584;9.938;2024-03-08T00:56:48;1.70;1.00
3023;DHT22;1521;53.584;9.938;2024-03-08T00:59:14;1.60;1.00
3023;DHT22;1521;53.584;9.938;2024-03-08T01:01:40;1.70;99.90
3023;DHT22;1521;53.584;9.938;2024-03-08T01:04:06;1.70;99.90
3023;DHT22;1521;53.584;9.938;2024-03-08T01:06:34;1.60;99.90
3023;DHT22;1521;53.584;9.938;2024-03-08T01:09:00;1.60;99.90
3023;DHT22;1521;53.584;9.938;2024-03-08T01:11:25;1.50;99.90
3023;DHT22;1521;53.584;9.938;2024-03-08T01:13:53;1.50;1.00
3023;DHT22;1521;53.584;9.938;2024-03-08T01:16:19;1.50;1.00
3023;DHT22;1521;53.584;9.938;2024-03-08T01:18:46;1.50;1.00
3023;DHT22;1521;53.584;9.938;2024-03-08T01:21:12;1.50;1.00
3023;DHT22;1521;53.584;9.938;2024-03-08T01:23:38;1.40;1.00
3023;DHT22;1521;53.584;9.938;2024-03-08T01:26:03;1.50;1.00
3023;DHT22;1521;53.584;9.938;2024-03-08T01:28:30;1.40;1.00
3023;DHT22;1521;53.584;9.938;2024-03-08T01:30:56;1.40;1.00
3023;DHT22;1521;53.584;9.938;2024-03-08T01:33:25;1.40;1.00
3023;DHT22;1521;53.584;9.938;2024-03-08T01:35:54;1.40;1.00
3023;DHT22;1521;53.584;9.938;2024-03-08T01:38:20;1.30;1.00
3023;DHT22;1521;53.584;9.938;2024-03-08T01:40:49;1.30;1.00
3023;DHT22;1521;53.584;9.938;2024-03-08T01:43:35;1.30;1.00
3023;DHT22;1521;53.584;9.938;2024-03-08T01:46:01;1.30;1.00
3023;DHT22;1521;53.584;9.938;2024-03-08T01:48:28;1.30;1.00
3023;DHT22;1521;53.584;9.938;2024-03-08T01:50:56;1.30;1.00
3023;DHT22;1521;53.584;9.938;2024-03-08T01:53:23;1.30;1.00
3023;DHT22;1521;53.584;9.938;2024-03-08T01:55:50;1.30;1.00
3023;DHT22;1521;53.584;9.938;2024-03-08T01:58:17;1.10;1.00
3023;DHT22;1521;53.584;9.938;2024-03-08T02:00:46;1.10;4.30
3023;DHT22;1521;53.584;9.938;2024-03-08T02:03:17;1.00;99.90
3023;DHT22;1521;53.584;9.938;2024-03-08T02:05:42;1.00;99.90
3023;DHT22;1521;53.584;9.938;2024-03-08T02:08:09;0.90;99.90
3023;DHT22;1521;53.584;9.938;2024-03-08T02:10:39;1.00;99.90
3023;DHT22;1521;53.584;9.938;2024-03-08T02:13:05;0.90;1.00
3023;DHT22;1521;53.584;9.938;2024-03-08T02:15:53;1.00;1.00
3023;DHT22;1521;53.584;9.938;2024-03-08T02:18:19;0.90;1.00
3023;DHT22;1521;53.584;9.938;2024-03-08T02:23:20;0.70;1.00
3023;DHT22;1521;53.584;9.938;2024-03-08T02:25:47;0.60;1.00
3023;DHT22;1521;53.584;9.938;2024-03-08T02:28:13;0.70;99.90
3023;DHT22;1521;53.584;9.938;2024-03-08T02:30:39;0.70;67.90
3023;DHT22;1521;53.584;9.938;2024-03-08T02:33:06;0.70;55.30
3023;DHT22;1521;53.584;9.938;2024-03-08T02:35:35;0.60;99.90
3023;DHT22;1521;53.584;9.938;2024-03-08T02:38:01;0.60;1.00
3023;DHT22;1521;53.584;9.938;2024-03-08T02:40:27;0.60;99.90
3023;DHT22;1521;53.584;9.938;2024-03-08T02:42:53;0.60;99.90
3023;DHT22;1521;53.584;9.938;2024-03-08T02:45:18;0.50;1.00
3023;DHT22;1521;53.584;9.938;2024-03-08T02:47:44;0.40;1.00
3023;DHT22;1521;53.584;9.938;2024-03-08T02:50:09;0.50;1.00
3023;DHT22;1521;53.584;9.938;2024-03-08T02:52:35;0.40;1.00
3023;DHT22;1521;53.584;9.938;2024-03-08T02:55:02;0.40;99.90
3023;DHT22;1521;53.584;9.938;2024-03-08T02:57:27;0.40;1.00
3023;DHT22;1521;53.584;9.938;2024-03-08T02:59:56;0.40;99.90
3023;DHT22;1521;53.584;9.938;2024-03-08T03:02:21;0.40;1.00
3023;DHT22;1521;53.584;9.938;2024-03-08T03:04:48;0.40;99.90
3023;DHT22;1521;53.584;9.938;2024-03-08T03:07:14;0.40;1.00
3023;DHT22;1521;53.584;9.938;2024-03-08T03:09:39;0.30;1.00
3023;DHT22;1521;53.584;9.938;2024-03-08T03:12:06;0.30;1.00
3023;DHT22;1521;53.584;9.938;2024-03-08T03:14:35;0.30;99.90
3023;DHT22;1521;53.584;9.938;2024-03-08T03:17:04;0.20;99.90
3023;DHT22;1521;53.584;9.938;2024-03-08T03:19:30;0.20;99.90
3023;DHT22;1521;53.584;9.938;2024-03-08T03:21:55;0.10;99.90
3023;DHT22;1521;53.584;9.938;2024-03-08T03:24:21;0.10;99.90
3023;DHT22;1521;53.584;9.938;2024-03-08T03:26:46;0.10;99.90
3023;DHT22;1521;53.584;9.938;2024-03-08T03:29:14;0.10;99.90
3023;DHT22;1521;53.584;9.938;2024-03-08T03:31:40;0.10;99.90
3023;DHT22;1521;53.584;9.938;2024-03-08T03:34:06;0.20;1.00
3023;DHT22;1521;53.584;9.938;2024-03-08T03:36:34;0.10;83.10
3023;DHT22;1521;53.584;9.938;2024-03-08T03:39:01;0.10;40.60
3023;DHT22;1521;53.584;9.938;2024-03-08T03:41:38;0.10;97.40
3023;DHT22;1521;53.584;9.938;2024-03-08T03:44:04;0.10;1.00
3023;DHT22;1521;53.584;9.938;2024-03-08T03:46:30;0.00;1.00
3023;DHT22;1521;53.584;9.938;2024-03-08T03:48:56;0.10;1.00
3023;DHT22;1521;53.584;9.938;2024-03-08T03:51:22;0.00;1.00
3023;DHT22;1521;53.584;9.938;2024-03-08T03:53:47;0.00;99.90
3023;DHT22;1521;53.584;9.938;2024-03-08T03:56:13;0.10;98.00
3023;DHT22;1521;53.584;9.938;2024-03-08T03:58:39;0.10;99.90
3023;DHT22;1521;53.584;9.938;2024-03-08T04:01:05;0.10;1.00
3023;DHT22;1521;53.584;9.938;2024-03-08T04:03:31;0.00;99.90
3023;DHT22;1521;53.584;9.938;2024-03-08T04:05:57;0.00;99.90
3023;DHT22;1521;53.584;9.938;2024-03-08T04:08:22;-0.10;58.00
3023;DHT22;1521;53.584;9.938;2024-03-08T04:10:49;0.00;1.00
3023;DHT22;1521;53.584;9.938;2024-03-08T04:13:15;0.00;1.00
3023;DHT22;1521;53.584;9.938;2024-03-08T04:15:41;0.00;1.00
3023;DHT22;1521;53.584;9.938;2024-03-08T04:18:09;0.00;1.00
3023;DHT22;1521;53.584;9.938;2024-03-08T04:20:35;0.00;1.00
3023;DHT22;1521;53.584;9.938;2024-03-08T04:23:01;0.00;34.30
3023;DHT22;1521;53.584;9.938;2024-03-08T04:25:27;-0.10;1.00
3023;DHT22;1521;53.584;9.938;2024-03-08T04:27:53;-0.10;1.00
3023;DHT22;1521;53.584;9.938;2024-03-08T04:30:18;-0.20;1.00
3023;DHT22;1521;53.584;9.938;2024-03-08T04:32:44;-0.20;99.90
3023;DHT22;1521;53.584;9.938;2024-03-08T04:35:09;-0.20;99.90
3023;DHT22;1521;53.584;9.938;2024-03-08T04:37:35;-0.20;1.00
3023;DHT22;1521;53.584;9.938;2024-03-08T04:40:00;-0.10;1.00
3023;DHT22;1521;53.584;9.938;2024-03-08T04:42:27;-0.20;58.90
3023;DHT22;1521;53.584;9.938;2024-03-08T04:44:54;-0.20;99.90
3023;DHT22;1521;53.584;9.938;2024-03-08T04:47:19;-0.20;99.90
3023;DHT22;1521;53.584;9.938;2024-03-08T04:49:45;-0.10;1.00
3023;DHT22;1521;53.584;9.938;2024-03-08T04:52:12;-0.10;1.00
3023;DHT22;1521;53.584;9.938;2024-03-08T04:54:37;-0.10;1.00
3023;DHT22;1521;53.584;9.938;2024-03-08T04:57:03;-0.10;1.00
3023;DHT22;1521;53.584;9.938;2024-03-08T04:59:30;-0.10;1.00
3023;DHT22;1521;53.584;9.938;2024-03-08T05:01:55;-0.20;1.00
3023;DHT22;1521;53.584;9.938;2024-03-08T05:04:21;-0.20;1.00
3023;DHT22;1521;53.584;9.938;2024-03-08T05:06:47;-0.20;1.00
3023;DHT22;1521;53.584;9.938;2024-03-08T05:09:13;-0.30;1.00
3023;DHT22;1521;53.584;9.938;2024-03-08T05:11:41;-0.20;1.00
3023;DHT22;1521;53.584;9.938;2024-03-08T05:14:06;-0.20;1.00
3023;DHT22;1521;53.584;9.938;2024-03-08T05:16:32;-0.20;1.00
3023;DHT22;1521;53.584;9.938;2024-03-08T05:18:57;-0.20;1.00
3023;DHT22;1521;53.584;9.938;2024-03-08T05:21:23;-0.20;1.00
3023;DHT22;1521;53.584;9.938;2024-03-08T05:23:49;-0.20;1.00
3023;DHT22;1521;53.584;9.938;2024-03-08T05:26:15;-0.10;1.00
3023;DHT22;1521;53.584;9.938;2024-03-08T05:28:41;-0.10;1.00
3023;DHT22;1521;53.584;9.938;2024-03-08T05:31:07;-0.20;1.00
3023;DHT22;1521;53.584;9.938;2024-03-08T05:33:33;-0.10;1.00
3023;DHT22;1521;53.584;9.938;2024-03-08T05:36:02;-0.20;1.00
3023;DHT22;1521;53.584;9.938;2024-03-08T05:38:28;-0.20;1.00
3023;DHT22;1521;53.584;9.938;2024-03-08T05:40:54;-0.20;1.00
3023;DHT22;1521;53.584;9.938;2024-03-08T05:43:20;-0.20;1.00
3023;DHT22;1521;53.584;9.938;2024-03-08T05:45:46;-0.20;1.00
3023;DHT22;1521;53.584;9.938;2024-03-08T05:48:13;-0.10;1.00
3023;DHT22;1521;53.584;9.938;2024-03-08T05:50:38;-0.20;1.00
3023;DHT22;1521;53.584;9.938;2024-03-08T05:53:04;-0.20;1.00
3023;DHT22;1521;53.584;9.938;2024-03-08T05:55:33;-0.30;1.00
3023;DHT22;1521;53.584;9.938;2024-03-08T05:58:01;-0.30;1.00
3023;DHT22;1521;53.584;9.938;2024-03-08T06:00:27;-0.30;1.00
3023;DHT22;1521;53.584;9.938;2024-03-08T06:02:52;-0.30;1.00
3023;DHT22;1521;53.584;9.938;2024-03-08T06:05:18;-0.20;1.00
3023;DHT22;1521;53.584;9.938;2024-03-08T06:07:44;-0.20;1.00
3023;DHT22;1521;53.584;9.938;2024-03-08T06:10:10;-0.20;1.00
3023;DHT22;1521;53.584;9.938;2024-03-08T06:12:38;-0.10;1.00
3023;DHT22;1521;53.584;9.938;2024-03-08T06:15:07;-0.10;1.00
3023;DHT22;1521;53.584;9.938;2024-03-08T06:17:34;-0.10;1.00
3023;DHT22;1521;53.584;9.938;2024-03-08T06:20:00;0.00;1.00
3023;DHT22;1521;53.584;9.938;2024-03-08T06:22:26;0.00;1.00
3023;DHT22;1521;53.584;9.938;2024-03-08T06:24:51;0.10;1.00
3023;DHT22;1521;53.584;9.938;2024-03-08T06:27:17;0.20;1.00
3023;DHT22;1521;53.584;9.938;2024-03-08T06:29:43;0.20;1.00
3023;DHT22;1521;53.584;9.938;2024-03-08T06:32:08;0.30;1.00
3023;DHT22;1521;53.584;9.938;2024-03-08T06:34:34;0.40;1.00
3023;DHT22;1521;53.584;9.938;2024-03-08T06:37:02;0.40;1.00
3023;DHT22;1521;53.584;9.938;2024-03-08T06:39:28;0.50;1.00
3023;DHT22;1521;53.584;9.938;2024-03-08T06:41:57;0.60;99.90
3023;DHT22;1521;53.584;9.938;2024-03-08T06:44:23;0.80;99.90
3023;DHT22;1521;53.584;9.938;2024-03-08T06:46:48;1.00;99.90
3023;DHT22;1521;53.584;9.938;2024-03-08T06:49:14;1.10;1.00
3023;DHT22;1521;53.584;9.938;2024-03-08T06:51:41;1.20;99.90
3023;DHT22;1521;53.584;9.938;2024-03-08T06:54:06;1.30;1.00
3023;DHT22;1521;53.584;9.938;2024-03-08T06:56:34;1.30;99.90
3023;DHT22;1521;53.584;9.938;2024-03-08T06:59:00;1.30;1.00
3023;DHT22;1521;53.584;9.938;2024-03-08T07:01:28;1.40;46.60
3023;DHT22;1521;53.584;9.938;2024-03-08T07:03:57;1.60;99.90
3023;DHT22;1521;53.584;9.938;2024-03-08T07:06:23;1.70;99.90
3023;DHT22;1521;53.584;9.938;2024-03-08T07:08:48;1.80;82.90
3023;DHT22;1521;53.584;9.938;2024-03-08T07:11:14;1.80;99.90
3023;DHT22;1521;53.584;9.938;2024-03-08T07:13:46;1.90;24.20
3023;DHT22;1521;53.584;9.938;2024-03-08T07:16:12;2.00;1.00
3023;DHT22;1521;53.584;9.938;2024-03-08T07:18:37;2.30;1.00
3023;DHT22;1521;53.584;9.938;2024-03-08T07:21:09;2.40;99.90
3023;DHT22;1521;53.584;9.938;2024-03-08T07:23:34;2.30;1.00
3023;DHT22;1521;53.584;9.938;2024-03-08T07:26:23;2.50;99.90
3023;DHT22;1521;53.584;9.938;2024-03-08T07:28:48;2.70;99.90
3023;DHT22;1521;53.584;9.938;2024-03-08T07:31:14;3.00;99.90
3023;DHT22;1521;53.584;9.938;2024-03-08T07:33:51;3.10;99.90
3023;DHT22;1521;53.584;9.938;2024-03-08T07:36:18;3.20;99.90
3023;DHT22;1521;53.584;9.938;2024-03-08T07:38:44;3.30;99.90
3023;DHT22;1521;53.584;9.938;2024-03-08T07:41:12;3.40;99.90
3023;DHT22;1521;53.584;9.938;2024-03-08T07:43:38;3.50;99.90
3023;DHT22;1521;53.584;9.938;2024-03-08T07:46:04;3.70;93.60
3023;DHT22;1521;53.584;9.938;2024-03-08T07:48:29;4.10;79.30
3023;DHT22;1521;53.584;9.938;2024-03-08T07:50:56;4.60;41.20
3023;DHT22;1521;53.584;9.938;2024-03-08T07:53:21;5.40;22.00
3023;DHT22;1521;53.584;9.938;2024-03-08T07:55:47;5.90;1.00
3023;DHT22;1521;53.584;9.938;2024-03-08T07:58:12;6.20;1.00
3023;DHT22;1521;53.584;9.938;2024-03-08T08:00:38;6.50;1.00
3023;DHT22;1521;53.584;9.938;2024-03-08T08:03:04;7.10;1.00
3023;DHT22;1521;53.584;9.938;2024-03-08T08:05:30;7.60;1.00
3023;DHT22;1521;53.584;9.938;2024-03-08T08:08:01;8.20;1.00
3023;DHT22;1521;53.584;9.938;2024-03-08T08:10:28;8.50;1.00
3023;DHT22;1521;53.584;9.938;2024-03-08T08:12:54;8.50;1.00
3023;DHT22;1521;53.584;9.938;2024-03-08T08:15:20;8.60;1.00
3023;DHT22;1521;53.584;9.938;2024-03-08T08:17:46;8.60;1.00
3023;DHT22;1521;53.584;9.938;2024-03-08T08:20:12;8.70;1.00
3023;DHT22;1521;53.584;9.938;2024-03-08T08:22:38;8.80;1.00
3023;DHT22;1521;53.584;9.938;2024-03-08T08:25:06;9.00;1.00
3023;DHT22;1521;53.584;9.938;2024-03-08T08:27:32;9.10;1.00
3023;DHT22;1521;53.584;9.938;2024-03-08T08:29:57;9.30;1.00
3023;DHT22;1521;53.584;9.938;2024-03-08T08:32:23;9.40;1.00
3023;DHT22;1521;53.584;9.938;2024-03-08T08:34:48;9.70;1.00
3023;DHT22;1521;53.584;9.938;2024-03-08T08:37:14;9.70;1.00
3023;DHT22;1521;53.584;9.938;2024-03-08T08:39:39;10.00;1.00
3023;DHT22;1521;53.584;9.938;2024-03-08T08:42:05;10.20;1.00
3023;DHT22;1521;53.584;9.938;2024-03-08T08:44:32;10.20;1.00
3023;DHT22;1521;53.584;9.938;2024-03-08T08:46:57;10.00;1.00
3023;DHT22;1521;53.584;9.938;2024-03-08T08:49:23;9.80;1.00
3023;DHT22;1521;53.584;9.938;2024-03-08T08:51:50;9.50;1.00
3023;DHT22;1521;53.584;9.938;2024-03-08T08:54:15;9.60;1.00
3023;DHT22;1521;53.584;9.938;2024-03-08T08:56:42;9.90;1.00
3023;DHT22;1521;53.584;9.938;2024-03-08T08:59:09;9.90;1.00
3023;DHT22;1521;53.584;9.938;2024-03-08T09:01:35;10.00;1.00
3023;DHT22;1521;53.584;9.938;2024-03-08T09:04:00;10.20;1.00
3023;DHT22;1521;53.584;9.938;2024-03-08T09:06:26;10.20;1.00
3023;DHT22;1521;53.584;9.938;2024-03-08T09:08:52;10.30;1.00
3023;DHT22;1521;53.584;9.938;2024-03-08T09:11:18;10.20;1.00
3023;DHT22;1521;53.584;9.938;2024-03-08T09:13:46;10.40;1.00
3023;DHT22;1521;53.584;9.938;2024-03-08T09:16:12;10.40;1.00
3023;DHT22;1521;53.584;9.938;2024-03-08T09:18:37;10.40;1.00
3023;DHT22;1521;53.584;9.938;2024-03-08T09:21:03;10.60;1.00
3023;DHT22;1521;53.584;9.938;2024-03-08T09:23:30;10.50;1.00
3023;DHT22;1521;53.584;9.938;2024-03-08T09:25:56;10.40;1.00
3023;DHT22;1521;53.584;9.938;2024-03-08T09:28:25;9.70;1.00
3023;DHT22;1521;53.584;9.938;2024-03-08T09:30:52;9.20;1.00
3023;DHT22;1521;53.584;9.938;2024-03-08T09:33:17;8.90;1.00
3023;DHT22;1521;53.584;9.938;2024-03-08T09:35:45;8.80;1.00
3023;DHT22;1521;53.584;9.938;2024-03-08T09:38:12;8.90;1.00
3023;DHT22;1521;53.584;9.938;2024-03-08T09:40:41;8.90;1.00
3023;DHT22;1521;53.584;9.938;2024-03-08T09:43:06;8.80;1.00
3023;DHT22;1521;53.584;9.938;2024-03-08T09:45:36;8.80;1.00
3023;DHT22;1521;53.584;9.938;2024-03-08T09:48:05;8.80;1.00
3023;DHT22;1521;53.584;9.938;2024-03-08T09:50:30;8.40;1.00
3023;DHT22;1521;53.584;9.938;2024-03-08T09:52:58;8.10;1.00
3023;DHT22;1521;53.584;9.938;2024-03-08T09:55:25;8.10;1.00
3023;DHT22;1521;53.584;9.938;2024-03-08T09:57:51;8.10;1.00
3023;DHT22;1521;53.584;9.938;2024-03-08T10:00:37;7.80;1.00
3023;DHT22;1521;53.584;9.938;2024-03-08T10:03:02;7.80;1.00
3023;DHT22;1521;53.584;9.938;2024-03-08T10:05:29;7.80;1.00
3023;DHT22;1521;53.584;9.938;2024-03-08T10:07:55;7.70;1.00
3023;DHT22;1521;53.584;9.938;2024-03-08T10:10:21;7.70;1.00
3023;DHT22;1521;53.584;9.938;2024-03-08T10:12:48;7.90;1.00
3023;DHT22;1521;53.584;9.938;2024-03-08T10:15:15;8.00;1.00
3023;DHT22;1521;53.584;9.938;2024-03-08T10:17:42;8.20;1.00
3023;DHT22;1521;53.584;9.938;2024-03-08T10:20:18;8.50;1.00
3023;DHT22;1521;53.584;9.938;2024-03-08T10:22:44;8.50;1.00
3023;DHT22;1521;53.584;9.938;2024-03-08T10:25:12;8.50;1.00
3023;DHT22;1521;53.584;9.938;2024-03-08T10:27:39;8.80;1.00
3023;DHT22;1521;53.584;9.938;2024-03-08T10:30:15;9.00;1.00
3023;DHT22;1521;53.584;9.938;2024-03-08T10:32:41;8.80;1.00
3023;DHT22;1521;53.584;9.938;2024-03-08T10:35:08;8.70;1.00
3023;DHT22;1521;53.584;9.938;2024-03-08T10:37:38;8.90;1.00
3023;DHT22;1521;53.584;9.938;2024-03-08T10:40:10;9.00;1.00
3023;DHT22;1521;53.584;9.938;2024-03-08T10:42:53;9.30;1.00
3023;DHT22;1521;53.584;9.938;2024-03-08T10:45:34;8.90;1.00
3023;DHT22;1521;53.584;9.938;2024-03-08T10:50:48;9.60;1.00
3023;DHT22;1521;53.584;9.938;2024-03-08T10:53:20;10.20;1.00
3023;DHT22;1521;53.584;9.938;2024-03-08T10:55:46;10.80;1.00
3023;DHT22;1521;53.584;9.938;2024-03-08T10:58:12;11.60;1.00
3023;DHT22;1521;53.584;9.938;2024-03-08T11:00:38;12.10;1.00
3023;DHT22;1521;53.584;9.938;2024-03-08T11:03:04;12.30;1.00
3023;DHT22;1521;53.584;9.938;2024-03-08T11:05:37;12.30;1.00
3023;DHT22;1521;53.584;9.938;2024-03-08T11:08:27;12.50;1.00
3023;DHT22;1521;53.584;9.938;2024-03-08T11:10:53;12.80;1.00
3023;DHT22;1521;53.584;9.938;2024-03-08T11:15:59;13.50;1.00
3023;DHT22;1521;53.584;9.938;2024-03-08T11:18:26;14.20;1.00
3023;DHT22;1521;53.584;9.938;2024-03-08T11:20:54;14.50;1.00
3023;DHT22;1521;53.584;9.938;2024-03-08T11:23:23;15.00;1.00
3023;DHT22;1521;53.584;9.938;2024-03-08T11:25:49;15.10;1.00
3023;DHT22;1521;53.584;9.938;2024-03-08T11:28:23;15.80;1.00
3023;DHT22;1521;53.584;9.938;2024-03-08T11:33:30;15.70;1.00
3023;DHT22;1521;53.584;9.938;2024-03-08T11:38:29;16.30;1.00
3023;DHT22;1521;53.584;9.938;2024-03-08T11:40:57;16.40;1.00
3023;DHT22;1521;53.584;9.938;2024-03-08T11:43:22;16.40;1.00
3023;DHT22;1521;53.584;9.938;2024-03-08T11:45:48;15.90;1.00
3023;DHT22;1521;53.584;9.938;2024-03-08T11:48:13;16.30;1.00
3023;DHT22;1521;53.584;9.938;2024-03-08T11:50:39;16.20;1.00
3023;DHT22;1521;53.584;9.938;2024-03-08T11:53:05;16.10;1.00
3023;DHT22;1521;53.584;9.938;2024-03-08T11:55:31;16.00;1.00
3023;DHT22;1521;53.584;9.938;2024-03-08T11:58:04;16.10;1.00
3023;DHT22;1521;53.584;9.938;2024-03-08T12:00:30;16.30;1.00
3023;DHT22;1521;53.584;9.938;2024-03-08T12:03:04;16.10;1.00
3023;DHT22;1521;53.584;9.938;2024-03-08T12:05:31;15.90;1.00
3023;DHT22;1521;53.584;9.938;2024-03-08T12:07:58;15.70;1.00
3023;DHT22;1521;53.584;9.938;2024-03-08T12:10:24;16.00;1.00
3023;DHT22;1521;53.584;9.938;2024-03-08T12:12:55;16.40;1.00
3023;DHT22;1521;53.584;9.938;2024-03-08T12:15:22;16.00;1.00
3023;DHT22;1521;53.584;9.938;2024-03-08T12:17:50;16.30;1.00
3023;DHT22;1521;53.584;9.938;2024-03-08T12:20:25;17.40;1.00
3023;DHT22;1521;53.584;9.938;2024-03-08T12:22:52;17.80;1.00
3023;DHT22;1521;53.584;9.938;2024-03-08T12:25:19;18.00;1.00
3023;DHT22;1521;53.584;9.938;2024-03-08T12:27:45;18.00;1.00
3023;DHT22;1521;53.584;9.938;2024-03-08T12:30:25;17.30;1.00
3023;DHT22;1521;53.584;9.938;2024-03-08T12:33:01;17.00;1.00
3023;DHT22;1521;53.584;9.938;2024-03-08T12:35:28;16.80;1.00
3023;DHT22;1521;53.584;9.938;2024-03-08T12:37:58;17.20;1.00
3023;DHT22;1521;53.584;9.938;2024-03-08T12:40:30;17.30;1.00
3023;DHT22;1521;53.584;9.938;2024-03-08T12:42:57;17.10;1.00
3023;DHT22;1521;53.584;9.938;2024-03-08T12:45:23;17.60;1.00
3023;DHT22;1521;53.584;9.938;2024-03-08T12:47:54;17.00;1.00
3023;DHT22;1521;53.584;9.938;2024-03-08T12:50:20;16.90;1.00
3023;DHT22;1521;53.584;9.938;2024-03-08T12:52:46;16.60;1.00
3023;DHT22;1521;53.584;9.938;2024-03-08T12:55:12;16.20;1.00
3023;DHT22;1521;53.584;9.938;2024-03-08T12:57:38;16.30;1.00
3023;DHT22;1521;53.584;9.938;2024-03-08T13:00:05;16.10;1.00
3023;DHT22;1521;53.584;9.938;2024-03-08T13:02:31;16.00;1.00
3023;DHT22;1521;53.584;9.938;2024-03-08T13:04:58;15.80;1.00
3023;DHT22;1521;53.584;9.938;2024-03-08T13:07:24;15.90;1.00
3023;DHT22;1521;53.584;9.938;2024-03-08T13:09:54;16.00;1.00
3023;DHT22;1521;53.584;9.938;2024-03-08T13:12:20;16.10;1.00
3023;DHT22;1521;53.584;9.938;2024-03-08T13:14:47;16.40;1.00
3023;DHT22;1521;53.584;9.938;2024-03-08T13:17:16;16.80;1.00
3023;DHT22;1521;53.584;9.938;2024-03-08T13:19:46;17.10;1.00
3023;DHT22;1521;53.584;9.938;2024-03-08T13:22:12;17.50;1.00
3023;DHT22;1521;53.584;9.938;2024-03-08T13:24:40;17.80;1.00
3023;DHT22;1521;53.584;9.938;2024-03-08T13:27:08;17.60;1.00
3023;DHT22;1521;53.584;9.938;2024-03-08T13:29:48;17.40;1.00
3023;DHT22;1521;53.584;9.938;2024-03-08T13:32:16;17.10;1.00
3023;DHT22;1521;53.584;9.938;2024-03-08T13:34:43;17.20;1.00
3023;DHT22;1521;53.584;9.938;2024-03-08T13:37:09;17.20;1.00
3023;DHT22;1521;53.584;9.938;2024-03-08T13:39:36;16.80;1.00
3023;DHT22;1521;53.584;9.938;2024-03-08T13:42:12;16.40;1.00
3023;DHT22;1521;53.584;9.938;2024-03-08T13:44:45;16.20;1.00
3023;DHT22;1521;53.584;9.938;2024-03-08T13:47:17;16.20;1.00
3023;DHT22;1521;53.584;9.938;2024-03-08T13:49:43;16.70;1.00
3023;DHT22;1521;53.584;9.938;2024-03-08T13:52:09;16.60;1.00
3023;DHT22;1521;53.584;9.938;2024-03-08T13:54:36;15.90;1.00
3023;DHT22;1521;53.584;9.938;2024-03-08T13:57:02;15.50;1.00
3023;DHT22;1521;53.584;9.938;2024-03-08T13:59:36;15.20;1.00
3023;DHT22;1521;53.584;9.938;2024-03-08T14:02:02;15.30;1.00
3023;DHT22;1521;53.584;9.938;2024-03-08T14:04:28;15.00;1.00
3023;DHT22;1521;53.584;9.938;2024-03-08T14:06:54;14.80;1.00
3023;DHT22;1521;53.584;9.938;2024-03-08T14:09:25;14.60;1.00
3023;DHT22;1521;53.584;9.938;2024-03-08T14:11:57;14.50;1.00
3023;DHT22;1521;53.584;9.938;2024-03-08T14:14:24;14.60;1.00
3023;DHT22;1521;53.584;9.938;2024-03-08T14:16:50;14.50;1.00
3023;DHT22;1521;53.584;9.938;2024-03-08T14:19:19;14.30;1.00
3023;DHT22;1521;53.584;9.938;2024-03-08T14:21:45;14.20;1.00
3023;DHT22;1521;53.584;9.938;2024-03-08T14:24:14;14.40;1.00
3023;DHT22;1521;53.584;9.938;2024-03-08T14:26:40;13.70;1.00
3023;DHT22;1521;53.584;9.938;2024-03-08T14:29:07;13.80;1.00
3023;DHT22;1521;53.584;9.938;2024-03-08T14:31:35;14.10;1.00
3023;DHT22;1521;53.584;9.938;2024-03-08T14:34:01;14.10;1.00
3023;DHT22;1521;53.584;9.938;2024-03-08T14:36:29;14.40;1.00
3023;DHT22;1521;53.584;9.938;2024-03-08T14:38:54;14.70;1.00
3023;DHT22;1521;53.584;9.938;2024-03-08T14:41:20;14.80;1.00
3023;DHT22;1521;53.584;9.938;2024-03-08T14:43:47;14.70;1.00
3023;DHT22;1521;53.584;9.938;2024-03-08T14:46:13;14.30;1.00
3023;DHT22;1521;53.584;9.938;2024-03-08T14:48:43;13.80;1.00
3023;DHT22;1521;53.584;9.938;2024-03-08T14:51:08;13.40;1.00
3023;DHT22;1521;53.584;9.938;2024-03-08T14:53:40;13.40;1.00
3023;DHT22;1521;53.584;9.938;2024-03-08T14:56:09;13.00;1.00
3023;DHT22;1521;53.584;9.938;2024-03-08T14:58:35;12.80;1.00
3023;DHT22;1521;53.584;9.938;2024-03-08T15:01:01;12.70;1.00
3023;DHT22;1521;53.584;9.938;2024-03-08T15:03:27;12.60;1.00
3023;DHT22;1521;53.584;9.938;2024-03-08T15:05:54;12.30;1.00
3023;DHT22;1521;53.584;9.938;2024-03-08T15:08:20;12.20;1.00
3023;DHT22;1521;53.584;9.938;2024-03-08T15:10:48;11.90;1.00
3023;DHT22;1521;53.584;9.938;2024-03-08T15:13:20;13.50;1.00
3023;DHT22;1521;53.584;9.938;2024-03-08T15:15:52;11.10;1.00
3023;DHT22;1521;53.584;9.938;2024-03-08T15:18:22;10.70;1.00
3023;DHT22;1521;53.584;9.938;2024-03-08T15:20:51;10.50;1.00
3023;DHT22;1521;53.584;9.938;2024-03-08T15:23:17;10.20;1.00
3023;DHT22;1521;53.584;9.938;2024-03-08T15:25:42;10.00;1.00
3023;DHT22;1521;53.584;9.938;2024-03-08T15:28:11;9.70;1.00
3023;DHT22;1521;53.584;9.938;2024-03-08T15:30:40;9.70;1.00
3023;DHT22;1521;53.584;9.938;2024-03-08T15:33:10;9.60;1.00
3023;DHT22;1521;53.584;9.938;2024-03-08T15:35:37;9.60;1.00
3023;DHT22;1521;53.584;9.938;2024-03-08T15:38:04;9.50;1.00
3023;DHT22;1521;53.584;9.938;2024-03-08T15:40:29;9.40;1.00
3023;DHT22;1521;53.584;9.938;2024-03-08T15:42:59;9.40;1.00
3023;DHT22;1521;53.584;9.938;2024-03-08T15:45:24;9.20;1.00
3023;DHT22;1521;53.584;9.938;2024-03-08T15:47:52;9.10;1.00
3023;DHT22;1521;53.584;9.938;2024-03-08T15:50:18;9.10;1.00
3023;DHT22;1521;53.584;9.938;2024-03-08T15:52:46;9.10;1.00
3023;DHT22;1521;53.584;9.938;2024-03-08T15:55:16;9.00;1.00
3023;DHT22;1521;53.584;9.938;2024-03-08T15:57:46;9.10;1.00
3023;DHT22;1521;53.584;9.938;2024-03-08T16:00:14;9.00;1.00
3023;DHT22;1521;53.584;9.938;2024-03-08T16:02:44;8.90;1.00
3023;DHT22;1521;53.584;9.938;2024-03-08T16:05:09;8.90;1.00
3023;DHT22;1521;53.584;9.938;2024-03-08T16:07:37;8.80;1.00
3023;DHT22;1521;53.584;9.938;2024-03-08T16:10:04;8.70;1.00
3023;DHT22;1521;53.584;9.938;2024-03-08T16:12:35;8.60;1.00
3023;DHT22;1521;53.584;9.938;2024-03-08T16:15:01;8.60;1.00
3023;DHT22;1521;53.584;9.938;2024-03-08T16:17:27;8.60;1.00
3023;DHT22;1521;53.584;9.938;2024-03-08T16:19:52;8.60;1.00
3023;DHT22;1521;53.584;9.938;2024-03-08T16:22:21;8.60;1.00
3023;DHT22;1521;53.584;9.938;2024-03-08T16:24:46;8.50;1.00
3023;DHT22;1521;53.584;9.938;2024-03-08T16:27:16;8.50;1.00
3023;DHT22;1521;53.584;9.938;2024-03-08T16:29:42;8.40;1.00
3023;DHT22;1521;53.584;9.938;2024-03-08T16:32:09;8.40;1.00
3023;DHT22;1521;53.584;9.938;2024-03-08T16:34:36;8.30;1.00
3023;DHT22;1521;53.584;9.938;2024-03-08T16:37:01;8.20;1.00